createdAt,value
2024-02-13T00:00:58.932Z,87.00
2024-02-13T00:03:03.820Z,87.07
2024-02-13T00:05:09.825Z,86.87
2024-02-13T00:07:15.089Z,86.94
2024-02-13T00:09:19.864Z,86.76
2024-02-13T00:11:24.570Z,87.04
2024-02-13T00:13:29.235Z,87.11
2024-02-13T00:15:34.110Z,86.71
2024-02-13T00:17:38.830Z,87.22
2024-02-13T00:19:43.960Z,87.02
2024-02-13T00:21:48.756Z,87.10
2024-02-13T00:23:53.572Z,87.21
2024-02-13T00:25:58.267Z,87.66
2024-02-13T00:28:03.056Z,87.41
2024-02-13T00:30:09.320Z,87.43
2024-02-13T00:32:13.990Z,87.75
2024-02-13T00:34:18.672Z,87.86
2024-02-13T00:36:23.273Z,87.97
2024-02-13T00:38:28.107Z,88.28
2024-02-13T00:40:33.227Z,88.15
2024-02-13T00:42:38.445Z,87.97
2024-02-13T00:44:44.971Z,88.43
2024-02-13T00:46:50.044Z,89.15
2024-02-13T00:48:55.595Z,89.28
2024-02-13T00:51:00.394Z,89.86
2024-02-13T00:53:05.218Z,90.04
2024-02-13T00:55:10.507Z,90.96
2024-02-13T00:57:15.224Z,90.86
2024-02-13T00:59:19.989Z,91.39
2024-02-13T01:01:24.746Z,91.28
2024-02-13T01:03:29.429Z,91.36
2024-02-13T01:05:34.154Z,92.05
2024-02-13T01:07:38.901Z,91.63
2024-02-13T01:09:43.550Z,92.15
2024-02-13T01:11:48.783Z,92.13
2024-02-13T01:13:53.550Z,92.14
2024-02-13T01:15:58.446Z,92.53
2024-02-13T01:18:03.183Z,92.47
2024-02-13T01:20:10.459Z,92.28
2024-02-13T01:22:15.232Z,92.26
2024-02-13T01:24:19.977Z,92.18
2024-02-13T01:26:24.749Z,92.28
2024-02-13T01:28:29.355Z,91.92
2024-02-13T01:30:34.019Z,91.67
2024-02-13T01:32:38.678Z,91.49
2024-02-13T01:34:43.971Z,91.02
2024-02-13T01:36:48.764Z,90.91
2024-02-13T01:38:53.464Z,90.52
2024-02-13T01:40:58.337Z,90.31
2024-02-13T01:43:03.106Z,90.55
2024-02-13T01:45:10.148Z,90.08
2024-02-13T01:47:15.121Z,90.53
2024-02-13T01:49:20.367Z,90.18
2024-02-13T01:51:28.660Z,90.26
2024-02-13T01:53:34.692Z,90.84
2024-02-13T01:55:40.200Z,91.24
2024-02-13T01:57:45.530Z,91.57
2024-02-13T01:59:50.469Z,92.17
2024-02-13T02:01:55.716Z,92.41
2024-02-13T02:04:03.461Z,92.69
2024-02-13T02:06:08.645Z,92.60
2024-02-13T02:08:13.487Z,93.23
2024-02-13T02:10:18.413Z,93.95
2024-02-13T02:12:23.238Z,94.56
2024-02-13T02:14:27.978Z,94.98
2024-02-13T02:16:32.671Z,95.62
2024-02-13T02:18:37.749Z,95.72
2024-02-13T02:20:42.567Z,95.97
2024-02-13T02:22:47.444Z,95.57
2024-02-13T02:24:52.069Z,95.86
2024-02-13T02:26:56.749Z,95.66
2024-02-13T02:29:01.396Z,95.81
2024-02-13T02:31:06.479Z,96.14
2024-02-13T02:33:12.650Z,96.36
2024-02-13T02:35:17.750Z,96.46
2024-02-13T02:37:22.489Z,96.79
2024-02-13T02:39:30.165Z,96.75
2024-02-13T02:41:34.790Z,96.53
2024-02-13T02:43:42.407Z,96.51
2024-02-13T02:45:47.545Z,96.92
2024-02-13T02:47:52.316Z,96.85
2024-02-13T02:49:56.940Z,97.09
2024-02-13T02:52:01.677Z,96.95
2024-02-13T02:54:07.117Z,97.03
2024-02-13T02:56:12.725Z,96.73
2024-02-13T02:58:17.393Z,96.98
2024-02-13T03:00:23.013Z,97.08
2024-02-13T03:02:27.719Z,97.45
2024-02-13T03:04:32.413Z,97.53
2024-02-13T03:06:37.147Z,97.88
2024-02-13T03:08:41.884Z,98.02
2024-02-13T03:10:46.570Z,98.02
2024-02-13T03:12:51.431Z,98.62
2024-02-13T03:14:56.136Z,99.15
2024-02-13T03:17:00.847Z,98.74
2024-02-13T03:19:06.134Z,98.94
2024-02-13T03:21:10.930Z,99.54
2024-02-13T03:23:15.563Z,99.40
2024-02-13T03:25:20.253Z,99.54
2024-02-13T03:27:24.950Z,99.56
2024-02-13T03:29:29.586Z,99.89
2024-02-13T03:31:34.314Z,99.77
2024-02-13T03:33:41.821Z,99.64
2024-02-13T03:35:47.472Z,99.93
2024-02-13T03:37:52.196Z,100.00
2024-02-13T03:39:56.812Z,100.00
2024-02-13T03:42:01.618Z,100.00
2024-02-13T03:44:06.351Z,100.00
2024-02-13T03:46:11.107Z,100.00
2024-02-13T03:48:16.422Z,100.00
2024-02-13T03:50:21.351Z,100.00
2024-02-13T03:52:26.070Z,100.00
2024-02-13T03:54:30.774Z,100.00
2024-02-13T03:56:35.568Z,100.00
2024-02-13T03:58:40.769Z,100.00
2024-02-13T04:00:45.473Z,100.00
2024-02-13T04:02:50.227Z,100.00
2024-02-13T04:04:54.870Z,100.00
2024-02-13T04:06:59.501Z,100.00
2024-02-13T04:09:04.503Z,100.00
2024-02-13T04:11:09.385Z,100.00
2024-02-13T04:13:14.081Z,100.00
2024-02-13T04:15:18.753Z,100.00
2024-02-13T04:17:23.406Z,100.00
2024-02-13T04:19:28.079Z,100.00
2024-02-13T04:21:32.741Z,100.00
2024-02-13T04:23:37.542Z,100.00
2024-02-13T04:25:42.214Z,100.00
2024-02-13T04:27:47.011Z,100.00
2024-02-13T04:29:51.642Z,100.00
2024-02-13T04:31:56.415Z,100.00
2024-02-13T04:34:01.314Z,100.00
2024-02-13T04:36:07.132Z,100.00
2024-02-13T04:38:11.960Z,100.00
2024-02-13T04:40:16.691Z,100.00
2024-02-13T04:42:33.173Z,100.00
2024-02-13T04:44:37.862Z,100.00
2024-02-13T04:46:42.587Z,100.00
2024-02-13T04:48:47.300Z,100.00
2024-02-13T04:50:52.020Z,100.00
2024-02-13T04:52:56.696Z,100.00
2024-02-13T04:55:01.435Z,100.00
2024-02-13T04:57:06.503Z,100.00
2024-02-13T04:59:11.248Z,100.00
2024-02-13T05:01:16.144Z,100.00
2024-02-13T05:03:22.176Z,100.00
2024-02-13T05:05:28.397Z,100.00
2024-02-13T05:07:33.207Z,100.00
2024-02-13T05:09:40.244Z,100.00
2024-02-13T05:11:44.913Z,100.00
2024-02-13T05:13:49.579Z,100.00
2024-02-13T05:15:54.250Z,100.00
2024-02-13T05:17:58.972Z,100.00
2024-02-13T05:20:03.996Z,100.00
2024-02-13T05:22:08.683Z,100.00
2024-02-13T05:24:13.352Z,100.00
2024-02-13T05:26:18.362Z,100.00
2024-02-13T05:28:23.048Z,100.00
2024-02-13T05:30:27.660Z,100.00
2024-02-13T05:32:32.422Z,100.00
2024-02-13T05:34:37.793Z,100.00
2024-02-13T05:36:42.425Z,100.00
2024-02-13T05:38:47.332Z,100.00
2024-02-13T05:40:52.034Z,100.00
2024-02-13T05:42:56.694Z,100.00
2024-02-13T05:45:01.356Z,100.00
2024-02-13T05:47:06.414Z,100.00
2024-02-13T05:49:11.127Z,100.00
2024-02-13T05:51:15.781Z,100.00
2024-02-13T05:53:20.587Z,100.00
2024-02-13T05:55:25.241Z,100.00
2024-02-13T05:57:29.823Z,100.00
2024-02-13T05:59:34.464Z,100.00
2024-02-13T06:01:39.214Z,100.00
2024-02-13T06:03:43.894Z,100.00
2024-02-13T06:05:51.162Z,100.00
2024-02-13T06:07:56.821Z,100.00
2024-02-13T06:10:01.651Z,100.00
2024-02-13T06:12:07.648Z,100.00
2024-02-13T06:14:12.375Z,100.00
2024-02-13T06:16:17.262Z,100.00
2024-02-13T06:18:22.682Z,100.00
2024-02-13T06:20:27.521Z,100.00
2024-02-13T06:22:32.133Z,100.00
2024-02-13T06:24:36.826Z,100.00
2024-02-13T06:26:41.454Z,100.00
2024-02-13T06:28:46.106Z,100.00
2024-02-13T06:30:50.799Z,100.00
2024-02-13T06:32:55.573Z,100.00
2024-02-13T06:35:00.290Z,99.99
2024-02-13T06:37:05.160Z,99.79
2024-02-13T06:39:09.755Z,100.00
2024-02-13T06:41:14.394Z,100.00
2024-02-13T06:43:19.857Z,100.00
2024-02-13T06:45:24.486Z,100.00
2024-02-13T06:47:29.255Z,100.00
2024-02-13T06:49:34.197Z,100.00
2024-02-13T06:51:38.891Z,100.00
2024-02-13T06:53:43.717Z,100.00
2024-02-13T06:55:48.466Z,100.00
2024-02-13T06:57:53.206Z,100.00
2024-02-13T06:59:57.985Z,100.00
2024-02-13T07:02:02.723Z,100.00
2024-02-13T07:04:07.553Z,100.00
2024-02-13T07:06:12.397Z,100.00
2024-02-13T07:08:17.300Z,100.00
2024-02-13T07:10:22.386Z,100.00
2024-02-13T07:12:27.140Z,100.00
2024-02-13T07:14:31.839Z,100.00
2024-02-13T07:16:41.027Z,100.00
2024-02-13T07:18:46.283Z,100.00
2024-02-13T07:20:51.706Z,100.00
2024-02-13T07:22:56.478Z,100.00
2024-02-13T07:25:01.324Z,100.00
2024-02-13T07:27:06.886Z,100.00
2024-02-13T07:29:11.701Z,100.00
2024-02-13T07:31:16.790Z,100.00
2024-02-13T07:33:21.617Z,100.00
2024-02-13T07:35:26.506Z,100.00
2024-02-13T07:37:31.203Z,100.00
2024-02-13T07:39:36.021Z,100.00
2024-02-13T07:41:40.765Z,100.00
2024-02-13T07:43:45.565Z,100.00
2024-02-13T07:45:50.313Z,100.00
2024-02-13T07:47:55.439Z,100.00
2024-02-13T07:50:03.169Z,100.00
2024-02-13T07:52:08.249Z,100.00
2024-02-13T07:54:13.093Z,100.00
2024-02-13T07:56:18.286Z,100.00
2024-02-13T07:58:23.561Z,100.00
2024-02-13T08:00:28.449Z,100.00
2024-02-13T08:02:33.590Z,100.00
2024-02-13T08:04:38.508Z,100.00
2024-02-13T08:06:43.437Z,100.00
2024-02-13T08:08:48.780Z,100.00
2024-02-13T08:10:53.813Z,100.00
2024-02-13T08:12:58.532Z,100.00
2024-02-13T08:15:03.484Z,100.00
2024-02-13T08:17:08.278Z,100.00
2024-02-13T08:19:13.310Z,100.00
2024-02-13T08:21:18.416Z,100.00
2024-02-13T08:23:23.449Z,100.00
2024-02-13T08:25:28.470Z,100.00
2024-02-13T08:27:33.556Z,100.00
2024-02-13T08:29:38.367Z,99.96
2024-02-13T08:31:43.108Z,98.30
2024-02-13T08:33:49.414Z,97.29
2024-02-13T08:35:54.400Z,98.33
2024-02-13T08:37:59.372Z,98.16
2024-02-13T08:40:08.772Z,97.93
2024-02-13T08:42:13.886Z,96.38
2024-02-13T08:44:18.762Z,94.78
2024-02-13T08:46:23.648Z,95.10
2024-02-13T08:48:28.639Z,94.24
2024-02-13T08:50:34.088Z,93.00
2024-02-13T08:52:39.100Z,92.81
2024-02-13T08:54:52.964Z,91.90
2024-02-13T08:57:01.081Z,91.97
2024-02-13T08:59:06.070Z,91.44
2024-02-13T09:01:11.246Z,91.35
2024-02-13T09:03:17.164Z,90.69
2024-02-13T09:05:22.469Z,90.45
2024-02-13T09:07:27.519Z,89.90
2024-02-13T09:09:33.201Z,88.10
2024-02-13T09:11:37.944Z,87.66
2024-02-13T09:13:42.771Z,87.45
2024-02-13T09:15:48.388Z,86.86
2024-02-13T09:17:53.747Z,84.38
2024-02-13T09:19:58.934Z,83.21
2024-02-13T09:22:03.901Z,82.75
2024-02-13T09:24:09.632Z,81.74
2024-02-13T09:26:14.572Z,81.26
2024-02-13T09:28:20.097Z,81.50
2024-02-13T09:30:25.078Z,81.67
2024-02-13T09:32:29.959Z,81.39
2024-02-13T09:34:35.172Z,78.62
2024-02-13T09:36:40.607Z,78.58
2024-02-13T09:38:45.696Z,78.89
2024-02-13T09:40:50.618Z,78.33
2024-02-13T09:42:55.529Z,76.85
2024-02-13T09:45:00.938Z,77.32
2024-02-13T09:47:07.229Z,77.11
2024-02-13T09:49:15.896Z,75.26
2024-02-13T09:51:22.095Z,73.55
2024-02-13T09:53:29.158Z,71.83
2024-02-13T09:55:34.898Z,70.82
2024-02-13T09:57:41.852Z,70.75
2024-02-13T09:59:46.905Z,72.11
2024-02-13T10:01:51.846Z,72.73
2024-02-13T10:03:56.792Z,73.18
2024-02-13T10:06:02.026Z,73.73
2024-02-13T10:08:07.685Z,74.03
2024-02-13T10:10:13.489Z,74.33
2024-02-13T10:12:19.737Z,74.39
2024-02-13T10:14:24.801Z,74.07
2024-02-13T10:16:30.418Z,73.37
2024-02-13T10:18:35.390Z,72.59
2024-02-13T10:20:40.744Z,73.21
2024-02-13T10:22:49.109Z,71.80
2024-02-13T10:24:56.416Z,70.66
2024-02-13T10:27:01.653Z,67.67
2024-02-13T10:29:06.866Z,67.34
2024-02-13T10:31:11.996Z,66.06
2024-02-13T10:33:17.144Z,65.17
2024-02-13T10:35:24.085Z,62.32
2024-02-13T10:37:30.309Z,62.18
2024-02-13T10:39:36.920Z,60.18
2024-02-13T10:41:45.500Z,60.56
2024-02-13T10:43:53.867Z,61.74
2024-02-13T10:45:59.825Z,62.67
2024-02-13T10:48:12.653Z,63.07
2024-02-13T10:50:18.611Z,63.78
2024-02-13T10:52:24.609Z,64.64
2024-02-13T10:54:30.552Z,65.67
2024-02-13T10:56:38.096Z,66.43
2024-02-13T10:58:44.423Z,66.10
2024-02-13T11:00:50.745Z,66.85
2024-02-13T11:02:56.316Z,67.59
2024-02-13T11:05:03.995Z,67.18
2024-02-13T11:07:10.356Z,66.19
2024-02-13T11:09:15.448Z,66.43
2024-02-13T11:11:23.888Z,66.74
2024-02-13T11:13:29.087Z,67.26
2024-02-13T11:15:34.170Z,66.56
2024-02-13T11:17:47.387Z,65.29
2024-02-13T11:19:57.522Z,65.93
2024-02-13T11:22:02.812Z,66.16
2024-02-13T11:24:08.562Z,66.69
2024-02-13T11:26:19.638Z,66.60
2024-02-13T11:28:24.663Z,66.79
2024-02-13T11:30:30.825Z,66.46
2024-02-13T11:32:37.801Z,65.00
2024-02-13T11:34:44.025Z,64.60
2024-02-13T11:36:50.380Z,63.38
2024-02-13T11:38:56.019Z,62.65
2024-02-13T11:41:00.824Z,61.81
2024-02-13T11:43:05.999Z,60.51
2024-02-13T11:45:21.639Z,58.04
2024-02-13T11:47:27.185Z,57.03
2024-02-13T11:49:32.793Z,57.42
2024-02-13T11:51:38.707Z,55.06
2024-02-13T11:53:44.130Z,54.82
2024-02-13T11:55:49.250Z,53.62
2024-02-13T11:57:54.204Z,52.91
2024-02-13T12:00:00.220Z,53.54
2024-02-13T12:02:10.248Z,54.60
2024-02-13T12:04:16.548Z,54.18
2024-02-13T12:06:21.530Z,54.31
2024-02-13T12:08:29.730Z,54.19
2024-02-13T12:10:35.473Z,54.18
2024-02-13T12:12:40.631Z,54.54
2024-02-13T12:14:46.021Z,54.03
2024-02-13T12:16:51.267Z,54.28
2024-02-13T12:18:59.796Z,53.65
2024-02-13T12:21:05.184Z,54.25
2024-02-13T12:23:11.030Z,54.90
2024-02-13T12:25:19.668Z,53.95
2024-02-13T12:27:24.728Z,54.23
2024-02-13T12:29:29.678Z,54.30
2024-02-13T12:31:34.586Z,53.89
2024-02-13T12:33:39.802Z,52.16
2024-02-13T12:35:44.648Z,51.21
2024-02-13T12:37:50.590Z,50.57
2024-02-13T12:39:55.428Z,51.02
2024-02-13T12:42:00.264Z,50.93
2024-02-13T12:44:05.739Z,50.94
2024-02-13T12:46:10.738Z,50.02
2024-02-13T12:48:15.982Z,49.30
2024-02-13T12:50:21.383Z,49.78
2024-02-13T12:52:26.498Z,49.82
2024-02-13T12:54:33.728Z,49.59
2024-02-13T12:56:39.298Z,49.36
2024-02-13T12:58:44.302Z,49.86
2024-02-13T13:00:49.799Z,48.78
2024-02-13T13:02:55.007Z,48.46
2024-02-13T13:05:00.010Z,48.40
2024-02-13T13:07:05.462Z,47.83
2024-02-13T13:09:20.193Z,48.34
2024-02-13T13:11:31.592Z,47.70
2024-02-13T13:13:36.788Z,47.00
2024-02-13T13:15:42.175Z,47.67
2024-02-13T13:17:47.389Z,47.53
2024-02-13T13:19:53.146Z,46.36
2024-02-13T13:21:58.573Z,45.98
2024-02-13T13:24:03.905Z,45.80
2024-02-13T13:26:09.138Z,44.65
2024-02-13T13:28:14.586Z,44.33
2024-02-13T13:30:21.662Z,44.88
2024-02-13T13:32:26.926Z,45.78
2024-02-13T13:34:31.982Z,45.65
2024-02-13T13:36:39.264Z,45.31
2024-02-13T13:38:44.394Z,46.08
2024-02-13T13:40:49.765Z,45.69
2024-02-13T13:42:54.907Z,45.96
2024-02-13T13:45:00.004Z,44.93
2024-02-13T13:47:05.791Z,43.54
2024-02-13T13:49:10.924Z,43.25
2024-02-13T13:51:15.967Z,42.52
2024-02-13T13:53:21.517Z,42.44
2024-02-13T13:55:26.681Z,42.44
2024-02-13T13:57:31.756Z,42.97
2024-02-13T13:59:39.721Z,42.18
2024-02-13T14:01:44.736Z,41.91
2024-02-13T14:03:50.096Z,42.10
2024-02-13T14:05:55.244Z,43.05
2024-02-13T14:08:00.676Z,43.23
2024-02-13T14:10:06.561Z,43.72
2024-02-13T14:12:11.606Z,43.59
2024-02-13T14:14:22.303Z,43.85
2024-02-13T14:16:27.221Z,43.89
2024-02-13T14:18:34.289Z,44.08
2024-02-13T14:20:39.672Z,43.98
2024-02-13T14:22:46.291Z,44.23
2024-02-13T14:24:51.268Z,44.20
2024-02-13T14:26:56.265Z,44.14
2024-02-13T14:29:01.340Z,43.81
2024-02-13T14:31:06.717Z,43.75
2024-02-13T14:33:12.741Z,43.53
2024-02-13T14:35:18.267Z,43.73
2024-02-13T14:37:23.409Z,44.05
2024-02-13T14:39:28.585Z,44.74
2024-02-13T14:41:33.817Z,44.95
2024-02-13T14:43:38.817Z,45.36
2024-02-13T14:45:43.888Z,45.33
2024-02-13T14:47:49.224Z,45.20
2024-02-13T14:49:54.871Z,45.39
2024-02-13T14:52:00.246Z,45.58
2024-02-13T14:54:05.981Z,45.84
2024-02-13T14:56:10.970Z,45.43
2024-02-13T14:58:22.917Z,45.67
2024-02-13T15:00:35.957Z,44.92
2024-02-13T15:02:41.352Z,44.20
2024-02-13T15:04:46.736Z,44.70
2024-02-13T15:06:51.794Z,44.94
2024-02-13T15:08:56.730Z,44.87
2024-02-13T15:11:01.855Z,45.47
2024-02-13T15:13:07.059Z,45.26
2024-02-13T15:15:12.488Z,45.33
2024-02-13T15:17:17.522Z,44.87
2024-02-13T15:19:22.633Z,45.19
2024-02-13T15:21:27.798Z,45.26
2024-02-13T15:23:33.091Z,45.47
2024-02-13T15:25:37.938Z,45.05
2024-02-13T15:27:43.155Z,44.94
2024-02-13T15:29:48.177Z,44.97
2024-02-13T15:31:53.174Z,45.01
2024-02-13T15:33:58.632Z,44.87
2024-02-13T15:36:04.519Z,45.22
2024-02-13T15:38:09.780Z,45.08
2024-02-13T15:40:15.871Z,45.32
2024-02-13T15:42:21.313Z,45.64
2024-02-13T15:44:26.300Z,45.91
2024-02-13T15:46:31.769Z,45.86
2024-02-13T15:48:36.739Z,46.08
2024-02-13T15:50:41.870Z,46.58
2024-02-13T15:52:46.881Z,47.05
2024-02-13T15:54:51.872Z,46.85
2024-02-13T15:56:56.941Z,46.83
2024-02-13T15:59:01.926Z,46.90
2024-02-13T16:01:06.818Z,46.79
2024-02-13T16:03:11.572Z,47.17
2024-02-13T16:05:16.412Z,47.36
2024-02-13T16:07:21.627Z,47.01
2024-02-13T16:09:26.842Z,47.26
2024-02-13T16:11:31.843Z,47.49
2024-02-13T16:13:36.757Z,47.48
2024-02-13T16:15:41.555Z,47.59
2024-02-13T16:17:46.712Z,47.84
2024-02-13T16:19:51.822Z,48.09
2024-02-13T16:21:56.568Z,48.41
2024-02-13T16:24:02.285Z,48.52
2024-02-13T16:26:07.504Z,48.29
2024-02-13T16:28:12.385Z,48.60
2024-02-13T16:30:18.683Z,49.22
2024-02-13T16:32:32.867Z,48.86
2024-02-13T16:34:44.276Z,49.32
2024-02-13T16:36:49.116Z,49.10
2024-02-13T16:38:54.166Z,49.36
2024-02-13T16:40:59.189Z,49.73
2024-02-13T16:43:05.372Z,49.86
2024-02-13T16:45:11.036Z,49.78
2024-02-13T16:47:15.963Z,49.78
2024-02-13T16:49:21.124Z,49.74
2024-02-13T16:51:25.993Z,50.17
2024-02-13T16:53:30.670Z,49.97
2024-02-13T16:55:35.438Z,50.10
2024-02-13T16:57:40.170Z,50.40
2024-02-13T16:59:45.843Z,50.40
2024-02-13T17:01:53.270Z,50.37
2024-02-13T17:03:58.100Z,50.61
2024-02-13T17:06:03.035Z,50.76
2024-02-13T17:08:08.856Z,51.04
2024-02-13T17:10:14.258Z,51.19
2024-02-13T17:12:19.032Z,51.28
2024-02-13T17:14:23.801Z,51.70
2024-02-13T17:16:28.554Z,51.64
2024-02-13T17:18:33.479Z,52.08
2024-02-13T17:20:38.381Z,52.49
2024-02-13T17:22:43.538Z,52.21
2024-02-13T17:24:48.501Z,52.66
2024-02-13T17:26:53.257Z,52.80
2024-02-13T17:28:57.950Z,52.97
2024-02-13T17:31:02.698Z,53.21
2024-02-13T17:33:07.701Z,52.80
2024-02-13T17:35:12.994Z,53.13
2024-02-13T17:37:17.752Z,53.12
2024-02-13T17:39:22.729Z,53.35
2024-02-13T17:41:27.453Z,52.89
2024-02-13T17:43:32.229Z,52.77
2024-02-13T17:45:37.100Z,52.87
2024-02-13T17:47:41.963Z,53.08
2024-02-13T17:49:46.822Z,52.65
2024-02-13T17:51:51.560Z,52.89
2024-02-13T17:53:56.467Z,52.99
2024-02-13T17:56:01.308Z,53.67
2024-02-13T17:58:06.354Z,53.47
2024-02-13T18:00:14.067Z,53.28
2024-02-13T18:02:18.744Z,53.79
2024-02-13T18:04:26.645Z,53.85
2024-02-13T18:06:31.483Z,53.85
2024-02-13T18:08:36.491Z,53.85
2024-02-13T18:10:41.536Z,54.33
2024-02-13T18:12:46.393Z,54.24
2024-02-13T18:14:51.205Z,54.30
2024-02-13T18:16:55.929Z,54.35
2024-02-13T18:19:00.905Z,54.53
2024-02-13T18:21:06.355Z,54.72
2024-02-13T18:23:11.344Z,54.78
2024-02-13T18:25:16.302Z,54.80
2024-02-13T18:27:21.181Z,55.00
2024-02-13T18:29:25.919Z,55.25
2024-02-13T18:31:31.046Z,55.37
2024-02-13T18:33:35.919Z,55.22
2024-02-13T18:35:41.512Z,55.48
2024-02-13T18:37:46.311Z,55.52
2024-02-13T18:39:51.135Z,55.54
2024-02-13T18:41:55.980Z,55.70
2024-02-13T18:44:00.721Z,55.76
2024-02-13T18:46:05.626Z,55.83
2024-02-13T18:48:11.122Z,56.25
2024-02-13T18:50:16.204Z,56.01
2024-02-13T18:52:21.003Z,56.26
2024-02-13T18:54:25.739Z,56.58
2024-02-13T18:56:32.472Z,56.73
2024-02-13T18:58:40.164Z,57.03
2024-02-13T19:00:44.924Z,57.40
2024-02-13T19:02:49.804Z,57.36
2024-02-13T19:04:54.547Z,57.66
2024-02-13T19:06:59.378Z,58.01
2024-02-13T19:09:04.470Z,58.48
2024-02-13T19:11:09.293Z,58.50
2024-02-13T19:13:14.147Z,59.06
2024-02-13T19:15:18.927Z,59.25
2024-02-13T19:17:23.702Z,59.32
2024-02-13T19:19:28.559Z,59.26
2024-02-13T19:21:33.432Z,59.24
2024-02-13T19:23:38.133Z,59.57
2024-02-13T19:25:42.839Z,59.83
2024-02-13T19:27:47.499Z,60.13
2024-02-13T19:29:52.615Z,60.34
2024-02-13T19:31:57.326Z,60.76
2024-02-13T19:34:02.335Z,60.78
2024-02-13T19:36:08.102Z,61.66
2024-02-13T19:38:12.972Z,62.68
2024-02-13T19:40:18.416Z,62.15
2024-02-13T19:42:23.151Z,62.48
2024-02-13T19:44:27.983Z,62.56
2024-02-13T19:46:32.672Z,62.08
2024-02-13T19:48:37.605Z,61.73
2024-02-13T19:50:42.516Z,61.70
2024-02-13T19:52:47.441Z,61.85
2024-02-13T19:54:52.285Z,62.15
2024-02-13T19:56:59.964Z,62.31
2024-02-13T19:59:05.953Z,62.51
2024-02-13T20:01:12.110Z,62.65
2024-02-13T20:03:17.082Z,62.73
2024-02-13T20:05:22.273Z,63.11
2024-02-13T20:07:27.062Z,63.12
2024-02-13T20:09:31.782Z,63.18
2024-02-13T20:11:36.658Z,63.36
2024-02-13T20:13:41.392Z,63.44
2024-02-13T20:15:46.091Z,63.80
2024-02-13T20:17:51.137Z,64.09
2024-02-13T20:19:56.051Z,64.28
2024-02-13T20:22:00.895Z,64.07
2024-02-13T20:24:06.259Z,64.21
2024-02-13T20:26:11.287Z,64.41
2024-02-13T20:28:16.374Z,64.40
2024-02-13T20:30:21.310Z,64.60
2024-02-13T20:32:26.106Z,64.80
2024-02-13T20:34:32.093Z,64.72
2024-02-13T20:36:36.805Z,65.07
2024-02-13T20:38:41.602Z,65.60
2024-02-13T20:40:46.383Z,65.39
2024-02-13T20:42:51.021Z,65.39
2024-02-13T20:45:01.294Z,65.55
2024-02-13T20:47:11.660Z,65.91
2024-02-13T20:49:16.468Z,66.23
2024-02-13T20:51:21.137Z,66.32
2024-02-13T20:53:25.917Z,66.67
2024-02-13T20:55:30.684Z,66.94
2024-02-13T20:57:35.478Z,67.27
2024-02-13T20:59:40.240Z,67.58
2024-02-13T21:01:44.930Z,67.85
2024-02-13T21:03:49.684Z,68.31
2024-02-13T21:05:54.627Z,68.51
2024-02-13T21:07:59.424Z,68.62
2024-02-13T21:10:04.590Z,69.02
2024-02-13T21:12:09.905Z,69.41
2024-02-13T21:14:14.698Z,69.64
2024-02-13T21:16:19.388Z,69.83
2024-02-13T21:18:24.411Z,70.15
2024-02-13T21:20:32.564Z,70.50
2024-02-13T21:22:37.395Z,71.46
2024-02-13T21:24:42.178Z,71.62
2024-02-13T21:26:46.933Z,72.91
2024-02-13T21:28:51.831Z,73.13
2024-02-13T21:30:56.547Z,73.67
2024-02-13T21:33:01.384Z,74.31
2024-02-13T21:35:07.134Z,74.49
2024-02-13T21:37:12.637Z,74.77
2024-02-13T21:39:17.331Z,75.54
2024-02-13T21:41:22.524Z,75.67
2024-02-13T21:43:27.246Z,75.89
2024-02-13T21:45:31.977Z,76.27
2024-02-13T21:47:36.654Z,76.39
2024-02-13T21:49:41.359Z,76.64
2024-02-13T21:51:46.025Z,76.46
2024-02-13T21:53:50.769Z,76.81
2024-02-13T21:55:55.419Z,76.90
2024-02-13T21:58:00.157Z,77.62
2024-02-13T22:00:06.412Z,77.83
2024-02-13T22:02:11.458Z,78.34
2024-02-13T22:04:19.261Z,78.82
2024-02-13T22:06:24.202Z,79.19
2024-02-13T22:08:28.903Z,79.34
2024-02-13T22:10:33.557Z,79.57
2024-02-13T22:12:38.346Z,80.11
2024-02-13T22:14:43.080Z,80.68
2024-02-13T22:16:47.726Z,80.51
2024-02-13T22:18:52.456Z,80.66
2024-02-13T22:20:57.326Z,80.93
2024-02-13T22:23:02.062Z,81.51
2024-02-13T22:25:07.609Z,82.20
2024-02-13T22:27:12.400Z,82.11
2024-02-13T22:29:17.576Z,82.25
2024-02-13T22:31:22.238Z,82.61
2024-02-13T22:33:27.127Z,83.05
2024-02-13T22:35:31.867Z,83.30
2024-02-13T22:37:36.518Z,84.03
2024-02-13T22:39:43.530Z,83.95
2024-02-13T22:41:49.531Z,84.07
2024-02-13T22:43:54.426Z,84.48
2024-02-13T22:45:59.157Z,84.87
2024-02-13T22:48:04.661Z,85.49
2024-02-13T22:50:10.957Z,85.31
2024-02-13T22:52:15.643Z,85.83
2024-02-13T22:54:20.975Z,85.70
2024-02-13T22:56:26.161Z,85.59
2024-02-13T22:58:31.101Z,85.75
2024-02-13T23:00:35.751Z,85.54
2024-02-13T23:02:43.170Z,85.42
2024-02-13T23:04:48.005Z,85.32
2024-02-13T23:06:52.684Z,86.21
2024-02-13T23:08:57.417Z,86.73
2024-02-13T23:11:02.097Z,87.39
2024-02-13T23:13:06.880Z,87.45
2024-02-13T23:15:12.723Z,87.68
2024-02-13T23:17:17.545Z,87.69
2024-02-13T23:19:22.367Z,88.02
2024-02-13T23:21:27.009Z,88.69
2024-02-13T23:23:31.679Z,88.58
2024-02-13T23:25:36.531Z,88.71
2024-02-13T23:27:41.182Z,88.52
2024-02-13T23:29:45.988Z,88.81
2024-02-13T23:31:50.722Z,89.10
2024-02-13T23:33:55.802Z,88.86
2024-02-13T23:36:00.774Z,88.98
2024-02-13T23:38:08.851Z,88.91
2024-02-13T23:40:18.091Z,89.07
2024-02-13T23:42:22.727Z,89.32
2024-02-13T23:44:27.392Z,89.22
2024-02-13T23:46:32.126Z,89.28
2024-02-13T23:48:36.935Z,89.36
2024-02-13T23:50:41.819Z,89.83
2024-02-13T23:52:46.719Z,89.28
2024-02-13T23:54:51.406Z,89.11
2024-02-13T23:56:56.266Z,89.81
2024-02-13T23:59:00.983Z,89.75
